sensor_id;sensor_type;location;lat;lon;timestamp;P1;durP1;ratioP1;P2;durP2;ratioP2
4724;SDS011;2376;53.544;10.226;2023-05-07T00:01:35;10.50;;;9.43;;
4724;SDS011;2376;53.544;10.226;2023-05-07T00:04:01;11.23;;;9.97;;
4724;SDS011;2376;53.544;10.226;2023-05-07T00:06:30;10.87;;;9.87;;
4724;SDS011;2376;53.544;10.226;2023-05-07T00:08:58;11.87;;;10.63;;
4724;SDS011;2376;53.544;10.226;2023-05-07T00:11:25;10.80;;;9.80;;
4724;SDS011;2376;53.544;10.226;2023-05-07T00:13:52;10.47;;;9.37;;
4724;SDS011;2376;53.544;10.226;2023-05-07T00:16:19;11.20;;;10.20;;
4724;SDS011;2376;53.544;10.226;2023-05-07T00:18:46;10.57;;;9.60;;
4724;SDS011;2376;53.544;10.226;2023-05-07T00:21:13;9.87;;;8.90;;
4724;SDS011;2376;53.544;10.226;2023-05-07T00:23:41;10.60;;;9.60;;
4724;SDS011;2376;53.544;10.226;2023-05-07T00:26:08;10.80;;;9.63;;
4724;SDS011;2376;53.544;10.226;2023-05-07T00:28:34;11.33;;;10.33;;
4724;SDS011;2376;53.544;10.226;2023-05-07T00:31:01;11.07;;;10.07;;
4724;SDS011;2376;53.544;10.226;2023-05-07T00:33:28;11.47;;;10.37;;
4724;SDS011;2376;53.544;10.226;2023-05-07T00:35:54;11.70;;;10.60;;
4724;SDS011;2376;53.544;10.226;2023-05-07T00:38:21;11.37;;;10.20;;
4724;SDS011;2376;53.544;10.226;2023-05-07T00:40:49;11.40;;;10.40;;
4724;SDS011;2376;53.544;10.226;2023-05-07T00:43:16;10.97;;;9.97;;
4724;SDS011;2376;53.544;10.226;2023-05-07T00:45:43;11.10;;;10.10;;
4724;SDS011;2376;53.544;10.226;2023-05-07T00:48:09;11.33;;;10.20;;
4724;SDS011;2376;53.544;10.226;2023-05-07T00:50:37;11.90;;;10.80;;
4724;SDS011;2376;53.544;10.226;2023-05-07T00:53:04;12.30;;;10.97;;
4724;SDS011;2376;53.544;10.226;2023-05-07T00:55:32;11.37;;;10.27;;
4724;SDS011;2376;53.544;10.226;2023-05-07T00:58:00;11.77;;;10.63;;
4724;SDS011;2376;53.544;10.226;2023-05-07T01:00:27;10.17;;;9.27;;
4724;SDS011;2376;53.544;10.226;2023-05-07T01:02:54;10.80;;;9.80;;
4724;SDS011;2376;53.544;10.226;2023-05-07T01:05:21;9.57;;;8.67;;
4724;SDS011;2376;53.544;10.226;2023-05-07T01:07:50;11.30;;;10.20;;
4724;SDS011;2376;53.544;10.226;2023-05-07T01:10:18;9.97;;;9.13;;
4724;SDS011;2376;53.544;10.226;2023-05-07T01:12:45;11.23;;;10.27;;
4724;SDS011;2376;53.544;10.226;2023-05-07T01:15:15;10.13;;;9.20;;
4724;SDS011;2376;53.544;10.226;2023-05-07T01:17:43;10.00;;;9.10;;
4724;SDS011;2376;53.544;10.226;2023-05-07T01:20:10;10.50;;;9.50;;
4724;SDS011;2376;53.544;10.226;2023-05-07T01:22:38;10.90;;;9.77;;
4724;SDS011;2376;53.544;10.226;2023-05-07T01:25:06;10.60;;;9.60;;
4724;SDS011;2376;53.544;10.226;2023-05-07T01:27:34;10.13;;;9.03;;
4724;SDS011;2376;53.544;10.226;2023-05-07T01:30:02;10.50;;;9.50;;
4724;SDS011;2376;53.544;10.226;2023-05-07T01:32:32;13.77;;;10.30;;
4724;SDS011;2376;53.544;10.226;2023-05-07T01:35:01;10.70;;;9.63;;
4724;SDS011;2376;53.544;10.226;2023-05-07T01:37:31;11.30;;;10.20;;
4724;SDS011;2376;53.544;10.226;2023-05-07T01:39:59;10.00;;;9.00;;
4724;SDS011;2376;53.544;10.226;2023-05-07T01:42:28;10.47;;;9.37;;
4724;SDS011;2376;53.544;10.226;2023-05-07T01:44:55;9.90;;;9.00;;
4724;SDS011;2376;53.544;10.226;2023-05-07T01:47:22;11.17;;;9.47;;
4724;SDS011;2376;53.544;10.226;2023-05-07T01:49:50;9.90;;;8.93;;
4724;SDS011;2376;53.544;10.226;2023-05-07T01:52:17;11.63;;;9.37;;
4724;SDS011;2376;53.544;10.226;2023-05-07T01:54:44;11.30;;;10.10;;
4724;SDS011;2376;53.544;10.226;2023-05-07T01:57:12;8.97;;;8.17;;
4724;SDS011;2376;53.544;10.226;2023-05-07T01:59:38;9.63;;;8.60;;
4724;SDS011;2376;53.544;10.226;2023-05-07T02:02:05;8.40;;;7.70;;
4724;SDS011;2376;53.544;10.226;2023-05-07T02:04:32;10.57;;;7.87;;
4724;SDS011;2376;53.544;10.226;2023-05-07T02:06:59;8.70;;;7.90;;
4724;SDS011;2376;53.544;10.226;2023-05-07T02:09:25;8.53;;;7.70;;
4724;SDS011;2376;53.544;10.226;2023-05-07T02:11:53;9.17;;;8.10;;
4724;SDS011;2376;53.544;10.226;2023-05-07T02:14:21;10.37;;;9.43;;
4724;SDS011;2376;53.544;10.226;2023-05-07T02:16:47;8.63;;;7.83;;
4724;SDS011;2376;53.544;10.226;2023-05-07T02:19:14;10.30;;;8.63;;
4724;SDS011;2376;53.544;10.226;2023-05-07T02:21:41;10.57;;;9.57;;
4724;SDS011;2376;53.544;10.226;2023-05-07T02:24:08;9.87;;;9.07;;
4724;SDS011;2376;53.544;10.226;2023-05-07T02:26:34;11.40;;;10.27;;
4724;SDS011;2376;53.544;10.226;2023-05-07T02:29:01;9.17;;;8.37;;
4724;SDS011;2376;53.544;10.226;2023-05-07T02:31:29;9.20;;;8.43;;
4724;SDS011;2376;53.544;10.226;2023-05-07T02:33:56;11.17;;;10.07;;
4724;SDS011;2376;53.544;10.226;2023-05-07T02:36:23;9.73;;;8.83;;
4724;SDS011;2376;53.544;10.226;2023-05-07T02:38:49;10.23;;;9.23;;
4724;SDS011;2376;53.544;10.226;2023-05-07T02:41:16;9.73;;;8.83;;
4724;SDS011;2376;53.544;10.226;2023-05-07T02:43:43;10.93;;;9.83;;
4724;SDS011;2376;53.544;10.226;2023-05-07T02:46:09;9.47;;;8.60;;
4724;SDS011;2376;53.544;10.226;2023-05-07T02:48:37;10.80;;;9.80;;
4724;SDS011;2376;53.544;10.226;2023-05-07T02:51:04;11.10;;;10.00;;
4724;SDS011;2376;53.544;10.226;2023-05-07T02:53:31;11.20;;;10.10;;
4724;SDS011;2376;53.544;10.226;2023-05-07T02:55:58;10.63;;;9.63;;
4724;SDS011;2376;53.544;10.226;2023-05-07T02:58:26;10.03;;;9.03;;
4724;SDS011;2376;53.544;10.226;2023-05-07T03:00:53;9.80;;;8.47;;
4724;SDS011;2376;53.544;10.226;2023-05-07T03:03:20;10.70;;;9.43;;
4724;SDS011;2376;53.544;10.226;2023-05-07T03:05:48;10.80;;;9.80;;
4724;SDS011;2376;53.544;10.226;2023-05-07T03:08:15;10.50;;;9.40;;
4724;SDS011;2376;53.544;10.226;2023-05-07T03:10:42;10.17;;;9.03;;
4724;SDS011;2376;53.544;10.226;2023-05-07T03:13:09;13.23;;;9.70;;
4724;SDS011;2376;53.544;10.226;2023-05-07T03:15:35;9.90;;;9.00;;
4724;SDS011;2376;53.544;10.226;2023-05-07T03:18:02;9.43;;;8.63;;
4724;SDS011;2376;53.544;10.226;2023-05-07T03:20:29;10.83;;;9.93;;
4724;SDS011;2376;53.544;10.226;2023-05-07T03:22:57;10.20;;;9.10;;
4724;SDS011;2376;53.544;10.226;2023-05-07T03:25:24;9.67;;;8.87;;
4724;SDS011;2376;53.544;10.226;2023-05-07T03:27:51;9.77;;;8.93;;
4724;SDS011;2376;53.544;10.226;2023-05-07T03:30:17;9.03;;;8.23;;
4724;SDS011;2376;53.544;10.226;2023-05-07T03:32:45;10.00;;;9.00;;
4724;SDS011;2376;53.544;10.226;2023-05-07T03:35:12;9.93;;;9.03;;
4724;SDS011;2376;53.544;10.226;2023-05-07T03:37:38;10.83;;;9.83;;
4724;SDS011;2376;53.544;10.226;2023-05-07T03:40:07;9.13;;;8.33;;
4724;SDS011;2376;53.544;10.226;2023-05-07T03:42:35;10.87;;;9.87;;
4724;SDS011;2376;53.544;10.226;2023-05-07T03:45:02;13.63;;;9.30;;
4724;SDS011;2376;53.544;10.226;2023-05-07T03:47:30;9.50;;;8.57;;
4724;SDS011;2376;53.544;10.226;2023-05-07T03:49:56;8.97;;;8.20;;
4724;SDS011;2376;53.544;10.226;2023-05-07T03:52:24;9.63;;;8.73;;
4724;SDS011;2376;53.544;10.226;2023-05-07T03:54:51;8.93;;;8.20;;
4724;SDS011;2376;53.544;10.226;2023-05-07T03:57:19;9.57;;;8.67;;
4724;SDS011;2376;53.544;10.226;2023-05-07T03:59:46;8.03;;;7.40;;
4724;SDS011;2376;53.544;10.226;2023-05-07T04:02:13;8.40;;;7.67;;
4724;SDS011;2376;53.544;10.226;2023-05-07T04:04:40;8.37;;;7.67;;
4724;SDS011;2376;53.544;10.226;2023-05-07T04:07:07;9.23;;;8.30;;
4724;SDS011;2376;53.544;10.226;2023-05-07T04:09:33;9.40;;;8.60;;
4724;SDS011;2376;53.544;10.226;2023-05-07T04:12:00;8.37;;;7.60;;
4724;SDS011;2376;53.544;10.226;2023-05-07T04:14:28;9.27;;;8.47;;
4724;SDS011;2376;53.544;10.226;2023-05-07T04:16:57;9.10;;;8.27;;
4724;SDS011;2376;53.544;10.226;2023-05-07T04:19:24;10.50;;;9.40;;
4724;SDS011;2376;53.544;10.226;2023-05-07T04:21:51;10.03;;;9.13;;
4724;SDS011;2376;53.544;10.226;2023-05-07T04:24:17;9.40;;;8.53;;
4724;SDS011;2376;53.544;10.226;2023-05-07T04:26:45;9.63;;;8.73;;
4724;SDS011;2376;53.544;10.226;2023-05-07T04:29:12;9.83;;;8.93;;
4724;SDS011;2376;53.544;10.226;2023-05-07T04:31:40;10.80;;;9.83;;
4724;SDS011;2376;53.544;10.226;2023-05-07T04:34:09;9.87;;;8.97;;
4724;SDS011;2376;53.544;10.226;2023-05-07T04:36:36;8.30;;;7.60;;
4724;SDS011;2376;53.544;10.226;2023-05-07T04:39:04;8.73;;;7.93;;
4724;SDS011;2376;53.544;10.226;2023-05-07T04:41:31;9.83;;;8.93;;
4724;SDS011;2376;53.544;10.226;2023-05-07T04:43:58;10.07;;;9.07;;
4724;SDS011;2376;53.544;10.226;2023-05-07T04:46:25;9.40;;;8.60;;
4724;SDS011;2376;53.544;10.226;2023-05-07T04:48:53;8.40;;;7.57;;
4724;SDS011;2376;53.544;10.226;2023-05-07T04:51:23;8.43;;;7.63;;
4724;SDS011;2376;53.544;10.226;2023-05-07T04:54:34;8.70;;;7.50;;
4724;SDS011;2376;53.544;10.226;2023-05-07T04:57:03;9.27;;;8.40;;
4724;SDS011;2376;53.544;10.226;2023-05-07T04:59:29;8.77;;;7.97;;
4724;SDS011;2376;53.544;10.226;2023-05-07T05:01:56;9.83;;;8.83;;
4724;SDS011;2376;53.544;10.226;2023-05-07T05:04:24;8.83;;;8.03;;
4724;SDS011;2376;53.544;10.226;2023-05-07T05:06:51;11.23;;;7.50;;
4724;SDS011;2376;53.544;10.226;2023-05-07T05:09:18;9.47;;;8.57;;
4724;SDS011;2376;53.544;10.226;2023-05-07T05:11:45;8.70;;;7.90;;
4724;SDS011;2376;53.544;10.226;2023-05-07T05:14:11;8.60;;;7.90;;
4724;SDS011;2376;53.544;10.226;2023-05-07T05:16:38;9.00;;;8.07;;
4724;SDS011;2376;53.544;10.226;2023-05-07T05:19:05;8.80;;;8.10;;
4724;SDS011;2376;53.544;10.226;2023-05-07T05:21:33;8.20;;;7.50;;
4724;SDS011;2376;53.544;10.226;2023-05-07T05:24:00;13.53;;;8.23;;
4724;SDS011;2376;53.544;10.226;2023-05-07T05:26:26;8.03;;;7.30;;
4724;SDS011;2376;53.544;10.226;2023-05-07T05:28:53;10.23;;;9.10;;
4724;SDS011;2376;53.544;10.226;2023-05-07T05:31:20;9.40;;;8.60;;
4724;SDS011;2376;53.544;10.226;2023-05-07T05:33:47;8.33;;;7.53;;
4724;SDS011;2376;53.544;10.226;2023-05-07T05:36:14;8.80;;;8.00;;
4724;SDS011;2376;53.544;10.226;2023-05-07T05:38:42;8.90;;;8.10;;
4724;SDS011;2376;53.544;10.226;2023-05-07T05:41:08;7.53;;;6.93;;
4724;SDS011;2376;53.544;10.226;2023-05-07T05:43:35;8.50;;;7.67;;
4724;SDS011;2376;53.544;10.226;2023-05-07T05:46:02;9.43;;;8.63;;
4724;SDS011;2376;53.544;10.226;2023-05-07T05:48:30;9.10;;;8.30;;
4724;SDS011;2376;53.544;10.226;2023-05-07T05:50:56;8.60;;;7.90;;
4724;SDS011;2376;53.544;10.226;2023-05-07T05:53:23;8.77;;;8.07;;
4724;SDS011;2376;53.544;10.226;2023-05-07T05:55:51;9.37;;;8.67;;
4724;SDS011;2376;53.544;10.226;2023-05-07T05:58:18;10.30;;;8.50;;
4724;SDS011;2376;53.544;10.226;2023-05-07T06:00:45;9.90;;;8.90;;
4724;SDS011;2376;53.544;10.226;2023-05-07T06:03:13;8.77;;;8.10;;
4724;SDS011;2376;53.544;10.226;2023-05-07T06:05:40;8.97;;;8.20;;
4724;SDS011;2376;53.544;10.226;2023-05-07T06:08:06;8.27;;;7.57;;
4724;SDS011;2376;53.544;10.226;2023-05-07T06:10:33;8.40;;;7.70;;
4724;SDS011;2376;53.544;10.226;2023-05-07T06:13:02;8.53;;;7.73;;
4724;SDS011;2376;53.544;10.226;2023-05-07T06:15:29;8.17;;;7.47;;
4724;SDS011;2376;53.544;10.226;2023-05-07T06:17:56;7.73;;;7.20;;
4724;SDS011;2376;53.544;10.226;2023-05-07T06:20:23;8.87;;;8.07;;
4724;SDS011;2376;53.544;10.226;2023-05-07T06:22:50;7.70;;;7.00;;
4724;SDS011;2376;53.544;10.226;2023-05-07T06:25:17;7.30;;;6.70;;
4724;SDS011;2376;53.544;10.226;2023-05-07T06:27:43;7.00;;;6.40;;
4724;SDS011;2376;53.544;10.226;2023-05-07T06:30:12;7.70;;;7.00;;
4724;SDS011;2376;53.544;10.226;2023-05-07T06:32:39;8.10;;;7.40;;
4724;SDS011;2376;53.544;10.226;2023-05-07T06:35:07;11.10;;;7.00;;
4724;SDS011;2376;53.544;10.226;2023-05-07T06:37:34;7.07;;;6.47;;
4724;SDS011;2376;53.544;10.226;2023-05-07T06:40:03;8.07;;;7.37;;
4724;SDS011;2376;53.544;10.226;2023-05-07T06:42:32;6.97;;;6.47;;
4724;SDS011;2376;53.544;10.226;2023-05-07T06:44:58;8.13;;;7.33;;
4724;SDS011;2376;53.544;10.226;2023-05-07T06:47:26;7.30;;;6.80;;
4724;SDS011;2376;53.544;10.226;2023-05-07T06:49:53;7.33;;;6.80;;
4724;SDS011;2376;53.544;10.226;2023-05-07T06:52:20;6.53;;;5.97;;
4724;SDS011;2376;53.544;10.226;2023-05-07T06:54:47;7.40;;;6.70;;
4724;SDS011;2376;53.544;10.226;2023-05-07T06:57:14;7.53;;;6.03;;
4724;SDS011;2376;53.544;10.226;2023-05-07T06:59:40;6.90;;;6.40;;
4724;SDS011;2376;53.544;10.226;2023-05-07T07:02:07;7.33;;;6.73;;
4724;SDS011;2376;53.544;10.226;2023-05-07T07:04:35;7.10;;;6.40;;
4724;SDS011;2376;53.544;10.226;2023-05-07T07:07:02;7.30;;;6.03;;
4724;SDS011;2376;53.544;10.226;2023-05-07T07:09:29;7.53;;;6.80;;
4724;SDS011;2376;53.544;10.226;2023-05-07T07:11:56;7.07;;;6.57;;
4724;SDS011;2376;53.544;10.226;2023-05-07T07:14:22;7.33;;;6.70;;
4724;SDS011;2376;53.544;10.226;2023-05-07T07:16:49;7.03;;;6.53;;
4724;SDS011;2376;53.544;10.226;2023-05-07T07:19:16;6.50;;;6.00;;
4724;SDS011;2376;53.544;10.226;2023-05-07T07:21:44;6.70;;;6.20;;
4724;SDS011;2376;53.544;10.226;2023-05-07T07:24:11;7.17;;;6.47;;
4724;SDS011;2376;53.544;10.226;2023-05-07T07:26:43;6.87;;;6.30;;
4724;SDS011;2376;53.544;10.226;2023-05-07T07:29:10;7.80;;;7.10;;
4724;SDS011;2376;53.544;10.226;2023-05-07T07:31:37;6.50;;;6.00;;
4724;SDS011;2376;53.544;10.226;2023-05-07T07:34:04;11.03;;;9.90;;
4724;SDS011;2376;53.544;10.226;2023-05-07T07:36:31;8.17;;;7.57;;
4724;SDS011;2376;53.544;10.226;2023-05-07T07:38:59;6.83;;;6.40;;
4724;SDS011;2376;53.544;10.226;2023-05-07T07:41:26;6.57;;;6.00;;
4724;SDS011;2376;53.544;10.226;2023-05-07T07:43:53;6.23;;;5.83;;
4724;SDS011;2376;53.544;10.226;2023-05-07T07:46:20;7.53;;;6.77;;
4724;SDS011;2376;53.544;10.226;2023-05-07T07:48:47;7.23;;;6.53;;
4724;SDS011;2376;53.544;10.226;2023-05-07T07:51:13;6.17;;;5.70;;
4724;SDS011;2376;53.544;10.226;2023-05-07T07:53:40;7.47;;;6.80;;
4724;SDS011;2376;53.544;10.226;2023-05-07T07:56:08;6.77;;;6.27;;
4724;SDS011;2376;53.544;10.226;2023-05-07T07:58:35;7.00;;;6.50;;
4724;SDS011;2376;53.544;10.226;2023-05-07T08:01:03;7.07;;;6.47;;
4724;SDS011;2376;53.544;10.226;2023-05-07T08:03:30;7.27;;;6.70;;
4724;SDS011;2376;53.544;10.226;2023-05-07T08:05:57;7.40;;;6.80;;
4724;SDS011;2376;53.544;10.226;2023-05-07T08:08:25;7.30;;;6.80;;
4724;SDS011;2376;53.544;10.226;2023-05-07T08:10:51;8.40;;;7.47;;
4724;SDS011;2376;53.544;10.226;2023-05-07T08:13:19;6.23;;;5.83;;
4724;SDS011;2376;53.544;10.226;2023-05-07T08:15:46;6.33;;;5.73;;
4724;SDS011;2376;53.544;10.226;2023-05-07T08:18:13;7.13;;;6.53;;
4724;SDS011;2376;53.544;10.226;2023-05-07T08:20:40;6.30;;;5.83;;
4724;SDS011;2376;53.544;10.226;2023-05-07T08:23:07;6.20;;;5.70;;
4724;SDS011;2376;53.544;10.226;2023-05-07T08:25:34;6.90;;;6.37;;
4724;SDS011;2376;53.544;10.226;2023-05-07T08:28:02;6.90;;;6.30;;
4724;SDS011;2376;53.544;10.226;2023-05-07T08:30:30;5.33;;;5.03;;
4724;SDS011;2376;53.544;10.226;2023-05-07T08:32:57;6.70;;;6.20;;
4724;SDS011;2376;53.544;10.226;2023-05-07T08:35:24;6.93;;;6.23;;
4724;SDS011;2376;53.544;10.226;2023-05-07T08:37:52;6.80;;;6.20;;
4724;SDS011;2376;53.544;10.226;2023-05-07T08:40:18;6.07;;;5.53;;
4724;SDS011;2376;53.544;10.226;2023-05-07T08:42:48;5.30;;;4.93;;
4724;SDS011;2376;53.544;10.226;2023-05-07T08:45:17;6.40;;;5.77;;
4724;SDS011;2376;53.544;10.226;2023-05-07T08:47:49;6.53;;;6.03;;
4724;SDS011;2376;53.544;10.226;2023-05-07T08:50:17;6.40;;;5.87;;
4724;SDS011;2376;53.544;10.226;2023-05-07T08:52:46;6.30;;;5.70;;
4724;SDS011;2376;53.544;10.226;2023-05-07T08:55:14;6.77;;;6.17;;
4724;SDS011;2376;53.544;10.226;2023-05-07T08:57:41;5.77;;;5.37;;
4724;SDS011;2376;53.544;10.226;2023-05-07T09:00:08;6.30;;;5.70;;
4724;SDS011;2376;53.544;10.226;2023-05-07T09:02:36;5.63;;;5.13;;
4724;SDS011;2376;53.544;10.226;2023-05-07T09:05:05;5.10;;;4.70;;
4724;SDS011;2376;53.544;10.226;2023-05-07T09:07:33;6.00;;;5.30;;
4724;SDS011;2376;53.544;10.226;2023-05-07T09:10:01;5.00;;;4.67;;
4724;SDS011;2376;53.544;10.226;2023-05-07T09:12:29;5.37;;;5.03;;
4724;SDS011;2376;53.544;10.226;2023-05-07T09:14:56;6.03;;;5.53;;
4724;SDS011;2376;53.544;10.226;2023-05-07T09:17:22;4.40;;;4.10;;
4724;SDS011;2376;53.544;10.226;2023-05-07T09:19:49;4.27;;;4.07;;
4724;SDS011;2376;53.544;10.226;2023-05-07T09:22:19;5.43;;;4.57;;
4724;SDS011;2376;53.544;10.226;2023-05-07T09:24:47;4.60;;;4.30;;
4724;SDS011;2376;53.544;10.226;2023-05-07T09:27:14;4.47;;;4.23;;
4724;SDS011;2376;53.544;10.226;2023-05-07T09:29:41;5.03;;;4.73;;
4724;SDS011;2376;53.544;10.226;2023-05-07T09:32:09;4.97;;;4.67;;
4724;SDS011;2376;53.544;10.226;2023-05-07T09:34:37;5.77;;;5.27;;
4724;SDS011;2376;53.544;10.226;2023-05-07T09:37:04;5.50;;;5.03;;
4724;SDS011;2376;53.544;10.226;2023-05-07T09:39:41;4.73;;;4.43;;
4724;SDS011;2376;53.544;10.226;2023-05-07T09:42:08;4.43;;;4.13;;
4724;SDS011;2376;53.544;10.226;2023-05-07T09:44:36;5.10;;;4.70;;
4724;SDS011;2376;53.544;10.226;2023-05-07T09:47:04;4.90;;;4.60;;
4724;SDS011;2376;53.544;10.226;2023-05-07T09:49:33;4.70;;;4.40;;
4724;SDS011;2376;53.544;10.226;2023-05-07T09:52:00;5.53;;;5.13;;
4724;SDS011;2376;53.544;10.226;2023-05-07T09:54:28;4.83;;;4.53;;
4724;SDS011;2376;53.544;10.226;2023-05-07T09:56:57;5.40;;;5.00;;
4724;SDS011;2376;53.544;10.226;2023-05-07T09:59:27;4.77;;;4.37;;
4724;SDS011;2376;53.544;10.226;2023-05-07T10:01:56;8.60;;;5.30;;
4724;SDS011;2376;53.544;10.226;2023-05-07T10:04:24;4.43;;;4.13;;
4724;SDS011;2376;53.544;10.226;2023-05-07T10:06:52;5.17;;;4.77;;
4724;SDS011;2376;53.544;10.226;2023-05-07T10:09:20;4.47;;;4.17;;
4724;SDS011;2376;53.544;10.226;2023-05-07T10:11:47;7.43;;;4.57;;
4724;SDS011;2376;53.544;10.226;2023-05-07T10:14:16;5.47;;;5.17;;
4724;SDS011;2376;53.544;10.226;2023-05-07T10:16:45;5.80;;;5.30;;
4724;SDS011;2376;53.544;10.226;2023-05-07T10:19:14;4.80;;;4.50;;
4724;SDS011;2376;53.544;10.226;2023-05-07T10:21:44;4.70;;;4.30;;
4724;SDS011;2376;53.544;10.226;2023-05-07T10:24:16;5.80;;;5.40;;
4724;SDS011;2376;53.544;10.226;2023-05-07T10:26:48;5.60;;;5.10;;
4724;SDS011;2376;53.544;10.226;2023-05-07T10:29:21;5.03;;;4.63;;
4724;SDS011;2376;53.544;10.226;2023-05-07T10:31:57;5.20;;;4.80;;
4724;SDS011;2376;53.544;10.226;2023-05-07T10:34:32;5.23;;;4.93;;
4724;SDS011;2376;53.544;10.226;2023-05-07T10:37:05;5.43;;;4.93;;
4724;SDS011;2376;53.544;10.226;2023-05-07T10:39:32;5.07;;;4.77;;
4724;SDS011;2376;53.544;10.226;2023-05-07T10:42:07;4.90;;;4.50;;
4724;SDS011;2376;53.544;10.226;2023-05-07T10:44:36;6.17;;;5.10;;
4724;SDS011;2376;53.544;10.226;2023-05-07T10:47:04;4.70;;;4.40;;
4724;SDS011;2376;53.544;10.226;2023-05-07T10:49:31;4.67;;;4.37;;
4724;SDS011;2376;53.544;10.226;2023-05-07T10:52:10;4.83;;;4.53;;
4724;SDS011;2376;53.544;10.226;2023-05-07T10:54:39;4.63;;;4.33;;
4724;SDS011;2376;53.544;10.226;2023-05-07T11:00:03;4.27;;;3.87;;
4724;SDS011;2376;53.544;10.226;2023-05-07T11:03:06;4.30;;;3.90;;
4724;SDS011;2376;53.544;10.226;2023-05-07T11:05:33;3.73;;;3.53;;
4724;SDS011;2376;53.544;10.226;2023-05-07T11:08:00;3.70;;;3.40;;
4724;SDS011;2376;53.544;10.226;2023-05-07T11:13:16;3.67;;;3.47;;
4724;SDS011;2376;53.544;10.226;2023-05-07T11:15:46;4.40;;;4.00;;
4724;SDS011;2376;53.544;10.226;2023-05-07T11:18:14;3.53;;;3.33;;
4724;SDS011;2376;53.544;10.226;2023-05-07T11:20:55;3.23;;;3.03;;
4724;SDS011;2376;53.544;10.226;2023-05-07T11:26:41;3.70;;;3.50;;
4724;SDS011;2376;53.544;10.226;2023-05-07T11:29:13;3.57;;;3.27;;
4724;SDS011;2376;53.544;10.226;2023-05-07T11:31:42;4.80;;;3.40;;
4724;SDS011;2376;53.544;10.226;2023-05-07T11:34:09;3.70;;;3.50;;
4724;SDS011;2376;53.544;10.226;2023-05-07T11:36:41;4.00;;;3.80;;
4724;SDS011;2376;53.544;10.226;2023-05-07T11:39:26;3.47;;;3.23;;
4724;SDS011;2376;53.544;10.226;2023-05-07T11:41:53;3.60;;;3.40;;
4724;SDS011;2376;53.544;10.226;2023-05-07T11:44:20;4.00;;;3.70;;
4724;SDS011;2376;53.544;10.226;2023-05-07T11:46:48;3.73;;;3.43;;
4724;SDS011;2376;53.544;10.226;2023-05-07T11:49:16;4.77;;;4.37;;
4724;SDS011;2376;53.544;10.226;2023-05-07T11:51:43;3.20;;;2.90;;
4724;SDS011;2376;53.544;10.226;2023-05-07T11:54:11;3.80;;;3.50;;
4724;SDS011;2376;53.544;10.226;2023-05-07T11:56:42;2.83;;;2.73;;
4724;SDS011;2376;53.544;10.226;2023-05-07T11:59:11;3.07;;;2.97;;
4724;SDS011;2376;53.544;10.226;2023-05-07T12:01:37;2.63;;;2.50;;
4724;SDS011;2376;53.544;10.226;2023-05-07T12:04:06;4.93;;;2.97;;
4724;SDS011;2376;53.544;10.226;2023-05-07T12:06:35;2.90;;;2.63;;
4724;SDS011;2376;53.544;10.226;2023-05-07T12:09:03;2.87;;;2.67;;
4724;SDS011;2376;53.544;10.226;2023-05-07T12:11:32;3.43;;;3.10;;
4724;SDS011;2376;53.544;10.226;2023-05-07T12:13:59;3.17;;;2.70;;
4724;SDS011;2376;53.544;10.226;2023-05-07T12:16:25;57.40;;;8.47;;
4724;SDS011;2376;53.544;10.226;2023-05-07T12:18:53;3.40;;;2.80;;
4724;SDS011;2376;53.544;10.226;2023-05-07T12:21:21;3.23;;;2.93;;
4724;SDS011;2376;53.544;10.226;2023-05-07T12:23:49;4.47;;;2.90;;
4724;SDS011;2376;53.544;10.226;2023-05-07T12:26:16;5.43;;;3.37;;
4724;SDS011;2376;53.544;10.226;2023-05-07T12:28:45;2.83;;;2.63;;
4724;SDS011;2376;53.544;10.226;2023-05-07T12:31:13;3.30;;;3.10;;
4724;SDS011;2376;53.544;10.226;2023-05-07T12:33:41;2.80;;;2.60;;
4724;SDS011;2376;53.544;10.226;2023-05-07T12:36:08;2.83;;;2.57;;
4724;SDS011;2376;53.544;10.226;2023-05-07T12:38:37;2.40;;;2.30;;
4724;SDS011;2376;53.544;10.226;2023-05-07T12:41:05;2.50;;;2.40;;
4724;SDS011;2376;53.544;10.226;2023-05-07T12:43:32;15.57;;;3.60;;
4724;SDS011;2376;53.544;10.226;2023-05-07T12:46:00;7.80;;;3.20;;
4724;SDS011;2376;53.544;10.226;2023-05-07T12:48:27;2.33;;;2.23;;
4724;SDS011;2376;53.544;10.226;2023-05-07T12:50:55;2.97;;;2.40;;
4724;SDS011;2376;53.544;10.226;2023-05-07T12:53:23;2.53;;;2.33;;
4724;SDS011;2376;53.544;10.226;2023-05-07T12:55:53;11.17;;;2.80;;
4724;SDS011;2376;53.544;10.226;2023-05-07T12:58:21;2.70;;;2.60;;
4724;SDS011;2376;53.544;10.226;2023-05-07T13:00:50;2.73;;;2.60;;
4724;SDS011;2376;53.544;10.226;2023-05-07T13:03:21;2.63;;;2.43;;
4724;SDS011;2376;53.544;10.226;2023-05-07T13:05:49;9.67;;;3.00;;
4724;SDS011;2376;53.544;10.226;2023-05-07T13:08:26;2.60;;;2.50;;
4724;SDS011;2376;53.544;10.226;2023-05-07T13:10:55;7.03;;;2.50;;
4724;SDS011;2376;53.544;10.226;2023-05-07T13:13:23;2.20;;;2.10;;
4724;SDS011;2376;53.544;10.226;2023-05-07T13:15:50;2.73;;;2.53;;
4724;SDS011;2376;53.544;10.226;2023-05-07T13:18:16;2.57;;;2.37;;
4724;SDS011;2376;53.544;10.226;2023-05-07T13:20:43;2.47;;;2.37;;
4724;SDS011;2376;53.544;10.226;2023-05-07T13:23:10;5.30;;;2.20;;
4724;SDS011;2376;53.544;10.226;2023-05-07T13:25:36;2.73;;;2.53;;
4724;SDS011;2376;53.544;10.226;2023-05-07T13:28:04;2.67;;;2.57;;
4724;SDS011;2376;53.544;10.226;2023-05-07T13:30:31;2.33;;;2.23;;
4724;SDS011;2376;53.544;10.226;2023-05-07T13:32:58;2.20;;;2.10;;
4724;SDS011;2376;53.544;10.226;2023-05-07T13:35:25;2.47;;;2.27;;
4724;SDS011;2376;53.544;10.226;2023-05-07T13:37:52;2.10;;;2.00;;
4724;SDS011;2376;53.544;10.226;2023-05-07T13:40:19;2.20;;;2.10;;
4724;SDS011;2376;53.544;10.226;2023-05-07T13:42:46;2.27;;;2.10;;
4724;SDS011;2376;53.544;10.226;2023-05-07T13:45:14;2.33;;;2.13;;
4724;SDS011;2376;53.544;10.226;2023-05-07T13:47:41;2.20;;;2.10;;
4724;SDS011;2376;53.544;10.226;2023-05-07T13:50:08;2.20;;;2.10;;
4724;SDS011;2376;53.544;10.226;2023-05-07T13:52:36;2.00;;;1.90;;
4724;SDS011;2376;53.544;10.226;2023-05-07T13:55:03;2.33;;;2.23;;
4724;SDS011;2376;53.544;10.226;2023-05-07T13:57:30;2.57;;;2.37;;
4724;SDS011;2376;53.544;10.226;2023-05-07T13:59:57;2.20;;;2.10;;
4724;SDS011;2376;53.544;10.226;2023-05-07T14:02:25;2.10;;;2.00;;
4724;SDS011;2376;53.544;10.226;2023-05-07T14:04:52;2.43;;;2.33;;
4724;SDS011;2376;53.544;10.226;2023-05-07T14:07:18;4.83;;;2.00;;
4724;SDS011;2376;53.544;10.226;2023-05-07T14:09:45;2.10;;;2.00;;
4724;SDS011;2376;53.544;10.226;2023-05-07T14:12:11;2.20;;;2.10;;
4724;SDS011;2376;53.544;10.226;2023-05-07T14:14:38;2.30;;;2.20;;
4724;SDS011;2376;53.544;10.226;2023-05-07T14:17:05;2.27;;;2.17;;
4724;SDS011;2376;53.544;10.226;2023-05-07T14:19:33;2.27;;;2.10;;
4724;SDS011;2376;53.544;10.226;2023-05-07T14:21:59;1.70;;;1.60;;
4724;SDS011;2376;53.544;10.226;2023-05-07T14:24:26;2.13;;;2.03;;
4724;SDS011;2376;53.544;10.226;2023-05-07T14:26:53;2.43;;;2.30;;
4724;SDS011;2376;53.544;10.226;2023-05-07T14:29:19;4.13;;;2.13;;
4724;SDS011;2376;53.544;10.226;2023-05-07T14:31:47;2.50;;;2.40;;
4724;SDS011;2376;53.544;10.226;2023-05-07T14:34:13;6.73;;;3.43;;
4724;SDS011;2376;53.544;10.226;2023-05-07T14:36:41;2.57;;;2.47;;
4724;SDS011;2376;53.544;10.226;2023-05-07T14:39:08;2.80;;;2.67;;
4724;SDS011;2376;53.544;10.226;2023-05-07T14:41:35;2.67;;;2.03;;
4724;SDS011;2376;53.544;10.226;2023-05-07T14:44:02;2.60;;;2.50;;
4724;SDS011;2376;53.544;10.226;2023-05-07T14:46:29;2.50;;;2.30;;
4724;SDS011;2376;53.544;10.226;2023-05-07T14:48:56;2.47;;;2.10;;
4724;SDS011;2376;53.544;10.226;2023-05-07T14:51:23;3.07;;;2.87;;
4724;SDS011;2376;53.544;10.226;2023-05-07T14:53:52;2.23;;;2.10;;
4724;SDS011;2376;53.544;10.226;2023-05-07T14:56:18;2.60;;;2.40;;
4724;SDS011;2376;53.544;10.226;2023-05-07T14:58:46;2.73;;;2.40;;
4724;SDS011;2376;53.544;10.226;2023-05-07T15:01:13;2.37;;;2.27;;
4724;SDS011;2376;53.544;10.226;2023-05-07T15:03:40;2.13;;;2.03;;
4724;SDS011;2376;53.544;10.226;2023-05-07T15:06:07;3.30;;;3.10;;
4724;SDS011;2376;53.544;10.226;2023-05-07T15:08:34;2.90;;;2.70;;
4724;SDS011;2376;53.544;10.226;2023-05-07T15:11:02;2.73;;;2.53;;